Terminal Aerodrome Forecast
Issued by NWS Wakefield, VA

Home | Current Version | Previous Version | Text Only | Print | Product List | Glossary On
Versions: 1 2 3 4 5 6 7 8 9 10 11 12 13 14
000
FTUS41 KAKQ 242320
TAFSBY
TAF
KSBY 242320Z 2500/2524 16007KT P6SM SCT150
     FM250900 16004KT 3SM BR SCT050
     FM251400 17007KT P6SM BKN010
     FM251600 17009KT P6SM BKN020
     FM251800 18012G19KT P6SM BKN100
     FM252100 18015G23KT 4SM SHRA BKN035=

USA.gov is the U.S. government's official web portal to all federal, state and local government web resources and services.